首页
METAR-TAF:

METAR-TAF

机场 :

Sonora Municipal Airport

Sonora, 得克萨斯州, 美国

纬度: 30-35-08N, 经度: 100-38-54W, 海拔: 652米

当前天气观测

该预报发布于18分钟前的15:35 UTC
风速6节,风向南转南东
温度
气压 1020 hPa
能見度: 16.1公里
少量云层高于12000英尺

METAR: KSOA 211535Z AUTO 16006KT 10SM FEW120 A3013 RMK AO2

时间: 10:53 (15:53 UTC)

预报

该预报发布于4小时和33分钟前的11:20 UTC
预报有效从21日的 12点(UTC)到 22日的 12点(UTC)
风速5节,风向多变
能見度: 10公里
多云层高于25000英尺
从 21日的 1700点(UTC)
风速6节,风向多变
能見度: 10公里
多云层高于5000英尺, 积雨云.
附近有雷暴
几率 30%
从 21日的 19点(UTC)到 21日的 23点(UTC)
能見度: 8.0公里
多云层高于5000英尺, 积雨云.
雷暴, 小雨
从 22日的 0300点(UTC)
风速7节,风向南转南东
能見度: 10公里
多云层高于7000英尺
附近有阵雨,

TAF: KSOA 211120Z 2112/2212 VRB05KT P6SM BKN250 FM211700 VRB06KT P6SM VCTS BKN050CB PROB30 2119/2123 5SM -TSRA BKN050CB FM220300 16007KT P6SM VCSH BKN070

超过4000个机场的气象观测和天气预报(METAR&TAF报告)。

可查询的气象台以黄色和红色小点在地图上表示。

将鼠标移到小点上方,可查看气象台名称。

然后点击查看天气观测和预报。

如需切换地图:点击带黑十字的绿色按钮放大地图;点击带横线的绿色按钮缩小地图;或者点击绿色箭头查看邻近地区的地图。


METAR-TAF: